<?xml version="1.0" encoding="UTF-8" standalone="no" ?>
<gpx xmlns="http://www.topografix.com/GPX/1/1" xmlns:xsi="http://www.w3.org/2001/XMLSchema-instance" xsi:schemaLocation="http://www.topografix.com/GPX/1/1 http://www.topografix.com/GPX/1/1/gpx.xsd" version="1.1" creator="VisuGPX - https://www.visugpx.com">
  <metadata>
    <name>14573635-Et9 L'Isle Jourdain - Gimont</name>
  </metadata>
  <trk>
    <name><![CDATA[14573635-Et9 L'Isle Jourdain - Gimont]]></name>
    <trkseg>
      <trkpt lat="43.61591" lon="1.10784">
        <ele>202</ele>
        <time>2022-04-16T15:39:01Z</time>
      </trkpt>
      <trkpt lat="43.61557" lon="1.1088">
        <ele>200</ele>
        <time>2022-04-16T15:40:44Z</time>
      </trkpt>
      <trkpt lat="43.61408" lon="1.1078">
        <ele>201</ele>
        <time>2022-04-16T15:44:25Z</time>
      </trkpt>
      <trkpt lat="43.61414" lon="1.10747">
        <ele>199</ele>
        <time>2022-04-16T15:44:58Z</time>
      </trkpt>
      <trkpt lat="43.61422" lon="1.10632">
        <ele>194</ele>
        <time>2022-04-16T15:46:50Z</time>
      </trkpt>
      <trkpt lat="43.61445" lon="1.10582">
        <ele>193</ele>
        <time>2022-04-16T15:47:47Z</time>
      </trkpt>
      <trkpt lat="43.61481" lon="1.10513">
        <ele>190</ele>
        <time>2022-04-16T15:49:09Z</time>
      </trkpt>
      <trkpt lat="43.6152" lon="1.10431">
        <ele>186</ele>
        <time>2022-04-16T15:50:44Z</time>
      </trkpt>
      <trkpt lat="43.6154" lon="1.10342">
        <ele>182</ele>
        <time>2022-04-16T15:52:14Z</time>
      </trkpt>
      <trkpt lat="43.6159" lon="1.10222">
        <ele>181</ele>
        <time>2022-04-16T15:54:28Z</time>
      </trkpt>
      <trkpt lat="43.61622" lon="1.10108">
        <ele>173</ele>
        <time>2022-04-16T15:56:26Z</time>
      </trkpt>
      <trkpt lat="43.61633" lon="1.10062">
        <ele>170</ele>
        <time>2022-04-16T15:57:13Z</time>
      </trkpt>
      <trkpt lat="43.61652" lon="1.10014">
        <ele>167</ele>
        <time>2022-04-16T15:58:06Z</time>
      </trkpt>
      <trkpt lat="43.61693" lon="1.09911">
        <ele>159</ele>
        <time>2022-04-16T15:59:59Z</time>
      </trkpt>
      <trkpt lat="43.61721" lon="1.0986">
        <ele>157</ele>
        <time>2022-04-16T16:01:01Z</time>
      </trkpt>
      <trkpt lat="43.61809" lon="1.09709">
        <ele>155</ele>
        <time>2022-04-16T16:04:08Z</time>
      </trkpt>
      <trkpt lat="43.6181" lon="1.0965">
        <ele>153</ele>
        <time>2022-04-16T16:05:05Z</time>
      </trkpt>
      <trkpt lat="43.61821" lon="1.09609">
        <ele>153</ele>
        <time>2022-04-16T16:05:48Z</time>
      </trkpt>
      <trkpt lat="43.61838" lon="1.09586">
        <ele>153</ele>
        <time>2022-04-16T16:06:19Z</time>
      </trkpt>
      <trkpt lat="43.61848" lon="1.09532">
        <ele>151</ele>
        <time>2022-04-16T16:07:13Z</time>
      </trkpt>
      <trkpt lat="43.61861" lon="1.09505">
        <ele>150</ele>
        <time>2022-04-16T16:07:44Z</time>
      </trkpt>
      <trkpt lat="43.61903" lon="1.09468">
        <ele>150</ele>
        <time>2022-04-16T16:08:51Z</time>
      </trkpt>
      <trkpt lat="43.61927" lon="1.0947">
        <ele>150</ele>
        <time>2022-04-16T16:09:23Z</time>
      </trkpt>
      <trkpt lat="43.62113" lon="1.09673">
        <ele>150</ele>
        <time>2022-04-16T16:14:39Z</time>
      </trkpt>
      <trkpt lat="43.62249" lon="1.09548">
        <ele>148</ele>
        <time>2022-04-16T16:18:17Z</time>
      </trkpt>
      <trkpt lat="43.62291" lon="1.09489">
        <ele>144</ele>
        <time>2022-04-16T16:19:37Z</time>
      </trkpt>
      <trkpt lat="43.6237" lon="1.09425">
        <ele>140</ele>
        <time>2022-04-16T16:21:39Z</time>
      </trkpt>
      <trkpt lat="43.62377" lon="1.09319">
        <ele>140</ele>
        <time>2022-04-16T16:23:22Z</time>
      </trkpt>
      <trkpt lat="43.62366" lon="1.09231">
        <ele>140</ele>
        <time>2022-04-16T16:24:49Z</time>
      </trkpt>
      <trkpt lat="43.62344" lon="1.08785">
        <ele>142</ele>
        <time>2022-04-16T16:32:00Z</time>
      </trkpt>
      <trkpt lat="43.6232" lon="1.08608">
        <ele>143</ele>
        <time>2022-04-16T16:34:54Z</time>
      </trkpt>
      <trkpt lat="43.62277" lon="1.08506">
        <ele>142</ele>
        <time>2022-04-16T16:36:48Z</time>
      </trkpt>
      <trkpt lat="43.62225" lon="1.0848">
        <ele>141</ele>
        <time>2022-04-16T16:38:02Z</time>
      </trkpt>
      <trkpt lat="43.62141" lon="1.08431">
        <ele>140</ele>
        <time>2022-04-16T16:40:04Z</time>
      </trkpt>
      <trkpt lat="43.62062" lon="1.08362">
        <ele>139</ele>
        <time>2022-04-16T16:42:09Z</time>
      </trkpt>
      <trkpt lat="43.61907" lon="1.08147">
        <ele>141</ele>
        <time>2022-04-16T16:47:02Z</time>
      </trkpt>
      <trkpt lat="43.61889" lon="1.08147">
        <ele>141</ele>
        <time>2022-04-16T16:47:26Z</time>
      </trkpt>
      <trkpt lat="43.619" lon="1.08121">
        <ele>142</ele>
        <time>2022-04-16T16:47:55Z</time>
      </trkpt>
      <trkpt lat="43.6192" lon="1.08096">
        <ele>143</ele>
        <time>2022-04-16T16:48:31Z</time>
      </trkpt>
      <trkpt lat="43.62033" lon="1.07959">
        <ele>143</ele>
        <time>2022-04-16T16:51:51Z</time>
      </trkpt>
      <trkpt lat="43.6188" lon="1.07912">
        <ele>144</ele>
        <time>2022-04-16T16:55:21Z</time>
      </trkpt>
      <trkpt lat="43.61829" lon="1.07868">
        <ele>144</ele>
        <time>2022-04-16T16:56:41Z</time>
      </trkpt>
      <trkpt lat="43.61644" lon="1.0766">
        <ele>145</ele>
        <time>2022-04-16T17:01:59Z</time>
      </trkpt>
      <trkpt lat="43.61667" lon="1.07636">
        <ele>145</ele>
        <time>2022-04-16T17:02:38Z</time>
      </trkpt>
      <trkpt lat="43.61662" lon="1.07612">
        <ele>143</ele>
        <time>2022-04-16T17:03:02Z</time>
      </trkpt>
      <trkpt lat="43.61621" lon="1.07595">
        <ele>143</ele>
        <time>2022-04-16T17:03:59Z</time>
      </trkpt>
      <trkpt lat="43.61522" lon="1.0752">
        <ele>143</ele>
        <time>2022-04-16T17:06:30Z</time>
      </trkpt>
      <trkpt lat="43.61516" lon="1.07415">
        <ele>143</ele>
        <time>2022-04-16T17:08:11Z</time>
      </trkpt>
      <trkpt lat="43.61519" lon="1.07325">
        <ele>143</ele>
        <time>2022-04-16T17:09:38Z</time>
      </trkpt>
      <trkpt lat="43.6149" lon="1.0728">
        <ele>143</ele>
        <time>2022-04-16T17:10:37Z</time>
      </trkpt>
      <trkpt lat="43.61508" lon="1.07153">
        <ele>143</ele>
        <time>2022-04-16T17:12:42Z</time>
      </trkpt>
      <trkpt lat="43.6144" lon="1.07121">
        <ele>145</ele>
        <time>2022-04-16T17:14:17Z</time>
      </trkpt>
      <trkpt lat="43.6143" lon="1.07112">
        <ele>146</ele>
        <time>2022-04-16T17:14:33Z</time>
      </trkpt>
      <trkpt lat="43.61397" lon="1.07064">
        <ele>146</ele>
        <time>2022-04-16T17:15:37Z</time>
      </trkpt>
      <trkpt lat="43.61333" lon="1.07018">
        <ele>145</ele>
        <time>2022-04-16T17:17:14Z</time>
      </trkpt>
      <trkpt lat="43.61283" lon="1.07019">
        <ele>144</ele>
        <time>2022-04-16T17:18:20Z</time>
      </trkpt>
      <trkpt lat="43.6125" lon="1.07075">
        <ele>145</ele>
        <time>2022-04-16T17:19:30Z</time>
      </trkpt>
      <trkpt lat="43.61243" lon="1.07189">
        <ele>144</ele>
        <time>2022-04-16T17:21:21Z</time>
      </trkpt>
      <trkpt lat="43.61213" lon="1.07227">
        <ele>144</ele>
        <time>2022-04-16T17:22:15Z</time>
      </trkpt>
      <trkpt lat="43.61154" lon="1.07225">
        <ele>144</ele>
        <time>2022-04-16T17:23:34Z</time>
      </trkpt>
      <trkpt lat="43.61112" lon="1.07175">
        <ele>144</ele>
        <time>2022-04-16T17:24:48Z</time>
      </trkpt>
      <trkpt lat="43.611" lon="1.07099">
        <ele>143</ele>
        <time>2022-04-16T17:26:03Z</time>
      </trkpt>
      <trkpt lat="43.61056" lon="1.07019">
        <ele>143</ele>
        <time>2022-04-16T17:27:40Z</time>
      </trkpt>
      <trkpt lat="43.61017" lon="1.0702">
        <ele>144</ele>
        <time>2022-04-16T17:28:32Z</time>
      </trkpt>
      <trkpt lat="43.60989" lon="1.07068">
        <ele>146</ele>
        <time>2022-04-16T17:29:32Z</time>
      </trkpt>
      <trkpt lat="43.60959" lon="1.07068">
        <ele>146</ele>
        <time>2022-04-16T17:30:12Z</time>
      </trkpt>
      <trkpt lat="43.60912" lon="1.07005">
        <ele>143</ele>
        <time>2022-04-16T17:31:39Z</time>
      </trkpt>
      <trkpt lat="43.60827" lon="1.06948">
        <ele>146</ele>
        <time>2022-04-16T17:33:45Z</time>
      </trkpt>
      <trkpt lat="43.60861" lon="1.06832">
        <ele>144</ele>
        <time>2022-04-16T17:35:46Z</time>
      </trkpt>
      <trkpt lat="43.6083" lon="1.06758">
        <ele>145</ele>
        <time>2022-04-16T17:37:09Z</time>
      </trkpt>
      <trkpt lat="43.60731" lon="1.06663">
        <ele>145</ele>
        <time>2022-04-16T17:39:50Z</time>
      </trkpt>
      <trkpt lat="43.60692" lon="1.06521">
        <ele>145</ele>
        <time>2022-04-16T17:42:16Z</time>
      </trkpt>
      <trkpt lat="43.60704" lon="1.06328">
        <ele>144</ele>
        <time>2022-04-16T17:45:23Z</time>
      </trkpt>
      <trkpt lat="43.60679" lon="1.06159">
        <ele>144</ele>
        <time>2022-04-16T17:48:10Z</time>
      </trkpt>
      <trkpt lat="43.60597" lon="1.05918">
        <ele>144</ele>
        <time>2022-04-16T17:52:27Z</time>
      </trkpt>
      <trkpt lat="43.60461" lon="1.05562">
        <ele>144</ele>
        <time>2022-04-16T17:58:56Z</time>
      </trkpt>
      <trkpt lat="43.60499" lon="1.05514">
        <ele>144</ele>
        <time>2022-04-16T18:00:05Z</time>
      </trkpt>
      <trkpt lat="43.60526" lon="1.0544">
        <ele>145</ele>
        <time>2022-04-16T18:01:25Z</time>
      </trkpt>
      <trkpt lat="43.60565" lon="1.05363">
        <ele>151</ele>
        <time>2022-04-16T18:02:56Z</time>
      </trkpt>
      <trkpt lat="43.60449" lon="1.05246">
        <ele>147</ele>
        <time>2022-04-16T18:06:08Z</time>
      </trkpt>
      <trkpt lat="43.60366" lon="1.05102">
        <ele>147</ele>
        <time>2022-04-16T18:09:05Z</time>
      </trkpt>
      <trkpt lat="43.60378" lon="1.05039">
        <ele>148</ele>
        <time>2022-04-16T18:10:08Z</time>
      </trkpt>
      <trkpt lat="43.60364" lon="1.04974">
        <ele>147</ele>
        <time>2022-04-16T18:11:14Z</time>
      </trkpt>
      <trkpt lat="43.60418" lon="1.04821">
        <ele>149</ele>
        <time>2022-04-16T18:13:58Z</time>
      </trkpt>
      <trkpt lat="43.60456" lon="1.04767">
        <ele>150</ele>
        <time>2022-04-16T18:15:11Z</time>
      </trkpt>
      <trkpt lat="43.60552" lon="1.04549">
        <ele>149</ele>
        <time>2022-04-16T18:19:18Z</time>
      </trkpt>
      <trkpt lat="43.60677" lon="1.04336">
        <ele>149</ele>
        <time>2022-04-16T18:23:43Z</time>
      </trkpt>
      <trkpt lat="43.6076" lon="1.04153">
        <ele>151</ele>
        <time>2022-04-16T18:27:11Z</time>
      </trkpt>
      <trkpt lat="43.60775" lon="1.04053">
        <ele>151</ele>
        <time>2022-04-16T18:28:50Z</time>
      </trkpt>
      <trkpt lat="43.60826" lon="1.03827">
        <ele>151</ele>
        <time>2022-04-16T18:32:39Z</time>
      </trkpt>
      <trkpt lat="43.60893" lon="1.03653">
        <ele>152</ele>
        <time>2022-04-16T18:35:49Z</time>
      </trkpt>
      <trkpt lat="43.60387" lon="1.02201">
        <ele>201</ele>
        <time>2022-04-16T19:01:46Z</time>
      </trkpt>
      <trkpt lat="43.60386" lon="1.02197">
        <ele>201</ele>
        <time>2022-04-16T19:01:50Z</time>
      </trkpt>
      <trkpt lat="43.60279" lon="1.01611">
        <ele>205</ele>
        <time>2022-04-16T19:11:34Z</time>
      </trkpt>
      <trkpt lat="43.6026" lon="1.01515">
        <ele>209</ele>
        <time>2022-04-16T19:13:10Z</time>
      </trkpt>
      <trkpt lat="43.60252" lon="1.00996">
        <ele>218</ele>
        <time>2022-04-16T19:21:32Z</time>
      </trkpt>
      <trkpt lat="43.60281" lon="1.0084">
        <ele>215</ele>
        <time>2022-04-16T19:24:08Z</time>
      </trkpt>
      <trkpt lat="43.60262" lon="1.00834">
        <ele>216</ele>
        <time>2022-04-16T19:24:34Z</time>
      </trkpt>
      <trkpt lat="43.60253" lon="1.00717">
        <ele>215</ele>
        <time>2022-04-16T19:26:27Z</time>
      </trkpt>
      <trkpt lat="43.60239" lon="1.00629">
        <ele>210</ele>
        <time>2022-04-16T19:27:55Z</time>
      </trkpt>
      <trkpt lat="43.60206" lon="1.00484">
        <ele>204</ele>
        <time>2022-04-16T19:30:21Z</time>
      </trkpt>
      <trkpt lat="43.60169" lon="1.00388">
        <ele>201</ele>
        <time>2022-04-16T19:32:07Z</time>
      </trkpt>
      <trkpt lat="43.60094" lon="1.00335">
        <ele>207</ele>
        <time>2022-04-16T19:33:59Z</time>
      </trkpt>
      <trkpt lat="43.5995" lon="1.00042">
        <ele>211</ele>
        <time>2022-04-16T19:39:41Z</time>
      </trkpt>
      <trkpt lat="43.59912" lon="0.99906">
        <ele>202</ele>
        <time>2022-04-16T19:42:02Z</time>
      </trkpt>
      <trkpt lat="43.5985" lon="0.99799">
        <ele>192</ele>
        <time>2022-04-16T19:44:14Z</time>
      </trkpt>
      <trkpt lat="43.59835" lon="0.99729">
        <ele>186</ele>
        <time>2022-04-16T19:45:25Z</time>
      </trkpt>
      <trkpt lat="43.59835" lon="0.99625">
        <ele>182</ele>
        <time>2022-04-16T19:47:05Z</time>
      </trkpt>
      <trkpt lat="43.59796" lon="0.99417">
        <ele>181</ele>
        <time>2022-04-16T19:50:33Z</time>
      </trkpt>
      <trkpt lat="43.59783" lon="0.99081">
        <ele>193</ele>
        <time>2022-04-16T19:55:58Z</time>
      </trkpt>
      <trkpt lat="43.59767" lon="0.98863">
        <ele>202</ele>
        <time>2022-04-16T19:59:30Z</time>
      </trkpt>
      <trkpt lat="43.59743" lon="0.98747">
        <ele>207</ele>
        <time>2022-04-16T20:01:27Z</time>
      </trkpt>
      <trkpt lat="43.59697" lon="0.98676">
        <ele>214</ele>
        <time>2022-04-16T20:02:59Z</time>
      </trkpt>
      <trkpt lat="43.59698" lon="0.98527">
        <ele>218</ele>
        <time>2022-04-16T20:05:23Z</time>
      </trkpt>
      <trkpt lat="43.59748" lon="0.9842">
        <ele>219</ele>
        <time>2022-04-16T20:07:26Z</time>
      </trkpt>
      <trkpt lat="43.59785" lon="0.98248">
        <ele>216</ele>
        <time>2022-04-16T20:10:19Z</time>
      </trkpt>
      <trkpt lat="43.598" lon="0.98137">
        <ele>215</ele>
        <time>2022-04-16T20:12:08Z</time>
      </trkpt>
      <trkpt lat="43.59755" lon="0.98112">
        <ele>212</ele>
        <time>2022-04-16T20:13:13Z</time>
      </trkpt>
      <trkpt lat="43.59771" lon="0.97983">
        <ele>206</ele>
        <time>2022-04-16T20:15:20Z</time>
      </trkpt>
      <trkpt lat="43.59747" lon="0.97994">
        <ele>203</ele>
        <time>2022-04-16T20:15:53Z</time>
      </trkpt>
      <trkpt lat="43.5965" lon="0.97916">
        <ele>182</ele>
        <time>2022-04-16T20:18:23Z</time>
      </trkpt>
      <trkpt lat="43.59616" lon="0.97838">
        <ele>179</ele>
        <time>2022-04-16T20:19:51Z</time>
      </trkpt>
      <trkpt lat="43.59563" lon="0.97859">
        <ele>179</ele>
        <time>2022-04-16T20:21:05Z</time>
      </trkpt>
      <trkpt lat="43.59488" lon="0.97865">
        <ele>181</ele>
        <time>2022-04-16T20:22:45Z</time>
      </trkpt>
      <trkpt lat="43.59475" lon="0.97794">
        <ele>183</ele>
        <time>2022-04-16T20:23:56Z</time>
      </trkpt>
      <trkpt lat="43.59409" lon="0.97683">
        <ele>190</ele>
        <time>2022-04-16T20:26:14Z</time>
      </trkpt>
      <trkpt lat="43.59363" lon="0.97651">
        <ele>193</ele>
        <time>2022-04-16T20:27:23Z</time>
      </trkpt>
      <trkpt lat="43.59336" lon="0.97604">
        <ele>194</ele>
        <time>2022-04-16T20:28:21Z</time>
      </trkpt>
      <trkpt lat="43.59219" lon="0.97489">
        <ele>175</ele>
        <time>2022-04-16T20:31:33Z</time>
      </trkpt>
      <trkpt lat="43.59251" lon="0.97425">
        <ele>176</ele>
        <time>2022-04-16T20:32:48Z</time>
      </trkpt>
      <trkpt lat="43.59338" lon="0.97346">
        <ele>179</ele>
        <time>2022-04-16T20:35:07Z</time>
      </trkpt>
      <trkpt lat="43.5938" lon="0.97248">
        <ele>182</ele>
        <time>2022-04-16T20:36:57Z</time>
      </trkpt>
      <trkpt lat="43.59407" lon="0.97045">
        <ele>181</ele>
        <time>2022-04-16T20:40:16Z</time>
      </trkpt>
      <trkpt lat="43.59432" lon="0.9694">
        <ele>182</ele>
        <time>2022-04-16T20:42:03Z</time>
      </trkpt>
      <trkpt lat="43.59492" lon="0.96778">
        <ele>181</ele>
        <time>2022-04-16T20:44:59Z</time>
      </trkpt>
      <trkpt lat="43.59552" lon="0.96665">
        <ele>184</ele>
        <time>2022-04-16T20:47:15Z</time>
      </trkpt>
      <trkpt lat="43.59545" lon="0.96608">
        <ele>183</ele>
        <time>2022-04-16T20:48:10Z</time>
      </trkpt>
      <trkpt lat="43.59602" lon="0.96196">
        <ele>198</ele>
        <time>2022-04-16T20:54:56Z</time>
      </trkpt>
      <trkpt lat="43.59604" lon="0.96091">
        <ele>203</ele>
        <time>2022-04-16T20:56:37Z</time>
      </trkpt>
      <trkpt lat="43.59653" lon="0.95822">
        <ele>212</ele>
        <time>2022-04-16T21:01:05Z</time>
      </trkpt>
      <trkpt lat="43.59707" lon="0.95609">
        <ele>216</ele>
        <time>2022-04-16T21:04:44Z</time>
      </trkpt>
      <trkpt lat="43.59736" lon="0.95452">
        <ele>220</ele>
        <time>2022-04-16T21:07:20Z</time>
      </trkpt>
      <trkpt lat="43.59739" lon="0.9532">
        <ele>221</ele>
        <time>2022-04-16T21:09:28Z</time>
      </trkpt>
      <trkpt lat="43.59823" lon="0.95098">
        <ele>225</ele>
        <time>2022-04-16T21:13:30Z</time>
      </trkpt>
      <trkpt lat="43.59969" lon="0.94842">
        <ele>234</ele>
        <time>2022-04-16T21:18:45Z</time>
      </trkpt>
      <trkpt lat="43.60424" lon="0.95099">
        <ele>223</ele>
        <time>2022-04-16T21:29:41Z</time>
      </trkpt>
      <trkpt lat="43.60445" lon="0.94802">
        <ele>232</ele>
        <time>2022-04-16T21:34:29Z</time>
      </trkpt>
      <trkpt lat="43.60436" lon="0.9473">
        <ele>233</ele>
        <time>2022-04-16T21:35:40Z</time>
      </trkpt>
      <trkpt lat="43.60468" lon="0.94418">
        <ele>218</ele>
        <time>2022-04-16T21:40:44Z</time>
      </trkpt>
      <trkpt lat="43.60463" lon="0.94264">
        <ele>216</ele>
        <time>2022-04-16T21:43:13Z</time>
      </trkpt>
      <trkpt lat="43.605" lon="0.94081">
        <ele>211</ele>
        <time>2022-04-16T21:46:17Z</time>
      </trkpt>
      <trkpt lat="43.60495" lon="0.94015">
        <ele>210</ele>
        <time>2022-04-16T21:47:21Z</time>
      </trkpt>
      <trkpt lat="43.60503" lon="0.93927">
        <ele>210</ele>
        <time>2022-04-16T21:48:47Z</time>
      </trkpt>
      <trkpt lat="43.60488" lon="0.93824">
        <ele>212</ele>
        <time>2022-04-16T21:50:28Z</time>
      </trkpt>
      <trkpt lat="43.60495" lon="0.93645">
        <ele>224</ele>
        <time>2022-04-16T21:53:21Z</time>
      </trkpt>
      <trkpt lat="43.60524" lon="0.93534">
        <ele>227</ele>
        <time>2022-04-16T21:55:15Z</time>
      </trkpt>
      <trkpt lat="43.60576" lon="0.93439">
        <ele>225</ele>
        <time>2022-04-16T21:57:10Z</time>
      </trkpt>
      <trkpt lat="43.60642" lon="0.93272">
        <ele>219</ele>
        <time>2022-04-16T22:00:14Z</time>
      </trkpt>
      <trkpt lat="43.60683" lon="0.93063">
        <ele>216</ele>
        <time>2022-04-16T22:03:43Z</time>
      </trkpt>
      <trkpt lat="43.60713" lon="0.9296">
        <ele>215</ele>
        <time>2022-04-16T22:05:31Z</time>
      </trkpt>
      <trkpt lat="43.60741" lon="0.92713">
        <ele>217</ele>
        <time>2022-04-16T22:09:32Z</time>
      </trkpt>
      <trkpt lat="43.60779" lon="0.92536">
        <ele>212</ele>
        <time>2022-04-16T22:12:31Z</time>
      </trkpt>
      <trkpt lat="43.60893" lon="0.92285">
        <ele>204</ele>
        <time>2022-04-16T22:17:17Z</time>
      </trkpt>
      <trkpt lat="43.6101" lon="0.92">
        <ele>194</ele>
        <time>2022-04-16T22:22:34Z</time>
      </trkpt>
      <trkpt lat="43.61032" lon="0.91822">
        <ele>205</ele>
        <time>2022-04-16T22:25:28Z</time>
      </trkpt>
      <trkpt lat="43.61077" lon="0.91634">
        <ele>211</ele>
        <time>2022-04-16T22:28:39Z</time>
      </trkpt>
      <trkpt lat="43.61085" lon="0.915">
        <ele>213</ele>
        <time>2022-04-16T22:30:49Z</time>
      </trkpt>
      <trkpt lat="43.61075" lon="0.91388">
        <ele>212</ele>
        <time>2022-04-16T22:32:38Z</time>
      </trkpt>
      <trkpt lat="43.61136" lon="0.91092">
        <ele>208</ele>
        <time>2022-04-16T22:37:36Z</time>
      </trkpt>
      <trkpt lat="43.60965" lon="0.91182">
        <ele>213</ele>
        <time>2022-04-16T22:41:40Z</time>
      </trkpt>
      <trkpt lat="43.60956" lon="0.91153">
        <ele>212</ele>
        <time>2022-04-16T22:42:10Z</time>
      </trkpt>
      <trkpt lat="43.60959" lon="0.9096">
        <ele>209</ele>
        <time>2022-04-16T22:45:17Z</time>
      </trkpt>
      <trkpt lat="43.60961" lon="0.90842">
        <ele>207</ele>
        <time>2022-04-16T22:47:11Z</time>
      </trkpt>
      <trkpt lat="43.6101" lon="0.90605">
        <ele>208</ele>
        <time>2022-04-16T22:51:09Z</time>
      </trkpt>
      <trkpt lat="43.61045" lon="0.90316">
        <ele>200</ele>
        <time>2022-04-16T22:55:52Z</time>
      </trkpt>
      <trkpt lat="43.61046" lon="0.90204">
        <ele>200</ele>
        <time>2022-04-16T22:57:40Z</time>
      </trkpt>
      <trkpt lat="43.61036" lon="0.90074">
        <ele>198</ele>
        <time>2022-04-16T22:59:47Z</time>
      </trkpt>
      <trkpt lat="43.61004" lon="0.89994">
        <ele>193</ele>
        <time>2022-04-16T23:01:15Z</time>
      </trkpt>
      <trkpt lat="43.60978" lon="0.89871">
        <ele>181</ele>
        <time>2022-04-16T23:03:19Z</time>
      </trkpt>
      <trkpt lat="43.60959" lon="0.8981">
        <ele>174</ele>
        <time>2022-04-16T23:04:23Z</time>
      </trkpt>
      <trkpt lat="43.60932" lon="0.8975">
        <ele>168</ele>
        <time>2022-04-16T23:05:31Z</time>
      </trkpt>
      <trkpt lat="43.60908" lon="0.89691">
        <ele>165</ele>
        <time>2022-04-16T23:06:37Z</time>
      </trkpt>
      <trkpt lat="43.60881" lon="0.89585">
        <ele>164</ele>
        <time>2022-04-16T23:08:25Z</time>
      </trkpt>
      <trkpt lat="43.6078" lon="0.89547">
        <ele>166</ele>
        <time>2022-04-16T23:10:45Z</time>
      </trkpt>
      <trkpt lat="43.60672" lon="0.89534">
        <ele>165</ele>
        <time>2022-04-16T23:13:10Z</time>
      </trkpt>
      <trkpt lat="43.60723" lon="0.89457">
        <ele>163</ele>
        <time>2022-04-16T23:14:50Z</time>
      </trkpt>
      <trkpt lat="43.60782" lon="0.89318">
        <ele>163</ele>
        <time>2022-04-16T23:17:26Z</time>
      </trkpt>
      <trkpt lat="43.60983" lon="0.8909">
        <ele>168</ele>
        <time>2022-04-16T23:23:13Z</time>
      </trkpt>
      <trkpt lat="43.61096" lon="0.88947">
        <ele>167</ele>
        <time>2022-04-16T23:26:38Z</time>
      </trkpt>
      <trkpt lat="43.61202" lon="0.88851">
        <ele>168</ele>
        <time>2022-04-16T23:29:27Z</time>
      </trkpt>
      <trkpt lat="43.61298" lon="0.8878">
        <ele>173</ele>
        <time>2022-04-16T23:31:52Z</time>
      </trkpt>
      <trkpt lat="43.61322" lon="0.88658">
        <ele>179</ele>
        <time>2022-04-16T23:33:54Z</time>
      </trkpt>
      <trkpt lat="43.6131" lon="0.88536">
        <ele>184</ele>
        <time>2022-04-16T23:35:53Z</time>
      </trkpt>
      <trkpt lat="43.61318" lon="0.88411">
        <ele>190</ele>
        <time>2022-04-16T23:37:55Z</time>
      </trkpt>
      <trkpt lat="43.61343" lon="0.8828">
        <ele>194</ele>
        <time>2022-04-16T23:40:05Z</time>
      </trkpt>
      <trkpt lat="43.61364" lon="0.88262">
        <ele>195</ele>
        <time>2022-04-16T23:40:38Z</time>
      </trkpt>
      <trkpt lat="43.61419" lon="0.88102">
        <ele>202</ele>
        <time>2022-04-16T23:43:30Z</time>
      </trkpt>
      <trkpt lat="43.61429" lon="0.88067">
        <ele>203</ele>
        <time>2022-04-16T23:44:06Z</time>
      </trkpt>
      <trkpt lat="43.61618" lon="0.88115">
        <ele>204</ele>
        <time>2022-04-16T23:48:22Z</time>
      </trkpt>
      <trkpt lat="43.61633" lon="0.88086">
        <ele>205</ele>
        <time>2022-04-16T23:48:57Z</time>
      </trkpt>
      <trkpt lat="43.61684" lon="0.87872">
        <ele>200</ele>
        <time>2022-04-16T23:52:34Z</time>
      </trkpt>
      <trkpt lat="43.61744" lon="0.87698">
        <ele>196</ele>
        <time>2022-04-16T23:55:41Z</time>
      </trkpt>
      <trkpt lat="43.61782" lon="0.87534">
        <ele>194</ele>
        <time>2022-04-16T23:58:27Z</time>
      </trkpt>
      <trkpt lat="43.61848" lon="0.87588">
        <ele>192</ele>
        <time>2022-04-17T00:00:09Z</time>
      </trkpt>
      <trkpt lat="43.61964" lon="0.87428">
        <ele>182</ele>
        <time>2022-04-17T00:03:48Z</time>
      </trkpt>
      <trkpt lat="43.62107" lon="0.87162">
        <ele>175</ele>
        <time>2022-04-17T00:09:08Z</time>
      </trkpt>
      <trkpt lat="43.62171" lon="0.87035">
        <ele>171</ele>
        <time>2022-04-17T00:11:38Z</time>
      </trkpt>
      <trkpt lat="43.62235" lon="0.87019">
        <ele>167</ele>
        <time>2022-04-17T00:13:04Z</time>
      </trkpt>
      <trkpt lat="43.62274" lon="0.87033">
        <ele>165</ele>
        <time>2022-04-17T00:13:58Z</time>
      </trkpt>
      <trkpt lat="43.62372" lon="0.87015">
        <ele>155</ele>
        <time>2022-04-17T00:16:10Z</time>
      </trkpt>
      <trkpt lat="43.62372" lon="0.87043">
        <ele>155</ele>
        <time>2022-04-17T00:16:37Z</time>
      </trkpt>
      <trkpt lat="43.62421" lon="0.87074">
        <ele>154</ele>
        <time>2022-04-17T00:17:49Z</time>
      </trkpt>
      <trkpt lat="43.62464" lon="0.87014">
        <ele>151</ele>
        <time>2022-04-17T00:19:11Z</time>
      </trkpt>
      <trkpt lat="43.62532" lon="0.8705">
        <ele>153</ele>
        <time>2022-04-17T00:20:48Z</time>
      </trkpt>
      <trkpt lat="43.62691" lon="0.87154">
        <ele>158</ele>
        <time>2022-04-17T00:24:43Z</time>
      </trkpt>
      <trkpt lat="43.62608" lon="0.8727">
        <ele>173</ele>
        <time>2022-04-17T00:27:20Z</time>
      </trkpt>
      <trkpt lat="43.62751" lon="0.87436">
        <ele>177</ele>
        <time>2022-04-17T00:31:29Z</time>
      </trkpt>
      <trkpt lat="43.62735" lon="0.87466">
        <ele>178</ele>
        <time>2022-04-17T00:32:05Z</time>
      </trkpt>
    </trkseg>
  </trk>
</gpx>